Time;durP1;ratioP1;P1;durP2;ratioP2;P2;SDS_P1;SDS_P2;PMS_P1;PMS_P2;Temp;Humidity;BMP_temperature;BMP_pressure;BME280_temperature;BME280_humidity;BME280_pressure;Samples;Min_cycle;Max_cycle;Signal;HPM_P1;HPM_P2
2023/04/16 00:00:47;;;;;;;74.53;20.83;;;;;;;;;;5080921;28;20044;-65
2023/04/16 00:03:14;;;;;;;72.85;19.40;;;;;;;;;;5076282;28;20178;-65
2023/04/16 00:05:40;;;;;;;83.18;22.10;;;;;;;;;;5082624;28;20173;-65
2023/04/16 00:08:06;;;;;;;75.95;20.65;;;;;;;;;;5110664;28;20130;-65
2023/04/16 00:10:32;;;;;;;75.85;20.45;;;;;;;;;;5111848;28;20573;-65
2023/04/16 00:12:58;;;;;;;76.90;21.00;;;;;;;;;;5091533;28;20063;-65
2023/04/16 00:15:24;;;;;;;81.47;23.95;;;;;;;;;;5111120;28;20118;-65
2023/04/16 00:17:50;;;;;;;72.93;21.50;;;;;;;;;;5096356;28;20119;-65
2023/04/16 00:20:16;;;;;;;91.45;23.27;;;;;;;;;;5104128;28;20462;-65
2023/04/16 00:22:42;;;;;;;81.97;21.00;;;;;;;;;;5093591;28;20039;-65
2023/04/16 00:25:09;;;;;;;76.13;21.25;;;;;;;;;;5115537;28;20058;-65
2023/04/16 00:27:35;;;;;;;80.13;22.10;;;;;;;;;;5113196;28;20052;-65
2023/04/16 00:30:01;;;;;;;63.60;19.55;;;;;;;;;;5097404;28;20480;-65
2023/04/16 00:32:27;;;;;;;86.88;24.40;;;;;;;;;;5096663;28;20048;-64
2023/04/16 00:34:53;;;;;;;80.85;24.17;;;;;;;;;;5092637;28;20456;-65
2023/04/16 00:37:19;;;;;;;91.18;22.73;;;;;;;;;;5107499;28;20126;-65
2023/04/16 00:39:45;;;;;;;84.88;22.60;;;;;;;;;;5096650;28;20130;-65
2023/04/16 00:42:11;;;;;;;79.15;22.55;;;;;;;;;;5113697;27;20118;-65
2023/04/16 00:44:37;;;;;;;88.88;24.65;;;;;;;;;;5115504;28;20101;-65
2023/04/16 00:47:03;;;;;;;90.32;23.17;;;;;;;;;;5095381;28;20117;-65
2023/04/16 00:49:30;;;;;;;82.68;21.15;;;;;;;;;;5079314;28;20044;-65
2023/04/16 00:51:56;;;;;;;75.97;22.92;;;;;;;;;;5070227;28;20097;-64
2023/04/16 00:54:22;;;;;;;96.47;25.08;;;;;;;;;;5080165;28;20047;-64
2023/04/16 00:56:49;;;;;;;89.68;23.30;;;;;;;;;;5095125;28;20433;-65
2023/04/16 00:59:15;;;;;;;87.00;22.45;;;;;;;;;;5095485;28;20044;-65
2023/04/16 01:01:41;;;;;;;77.45;23.98;;;;;;;;;;5113574;28;20391;-65
2023/04/16 01:04:07;;;;;;;71.53;23.20;;;;;;;;;;5115122;28;20043;-65
2023/04/16 01:06:33;;;;;;;77.28;23.73;;;;;;;;;;5079125;28;20055;-65
2023/04/16 01:08:59;;;;;;;79.05;22.30;;;;;;;;;;5111001;28;20055;-65
2023/04/16 01:11:25;;;;;;;71.35;21.85;;;;;;;;;;5100426;28;20100;-65
2023/04/16 01:13:51;;;;;;;79.55;23.75;;;;;;;;;;5095535;28;20035;-65
2023/04/16 01:16:17;;;;;;;60.55;18.10;;;;;;;;;;5078601;28;20043;-65
2023/04/16 01:18:43;;;;;;;76.63;23.27;;;;;;;;;;5079689;28;20134;-65
2023/04/16 01:21:09;;;;;;;59.60;19.55;;;;;;;;;;5093564;28;20127;-64
2023/04/16 01:23:36;;;;;;;70.35;21.25;;;;;;;;;;5096516;28;20517;-65
2023/04/16 01:26:02;;;;;;;66.68;20.45;;;;;;;;;;5076554;28;20074;-65
2023/04/16 01:28:28;;;;;;;72.68;21.73;;;;;;;;;;5112053;28;20075;-64
2023/04/16 01:30:54;;;;;;;70.40;21.58;;;;;;;;;;5078403;28;20483;-65
2023/04/16 01:33:20;;;;;;;72.43;21.98;;;;;;;;;;5075968;28;20040;-65
2023/04/16 01:35:46;;;;;;;68.20;22.45;;;;;;;;;;5077351;28;20051;-65
2023/04/16 01:38:12;;;;;;;82.03;22.25;;;;;;;;;;5078959;28;20492;-65
2023/04/16 01:40:38;;;;;;;72.30;22.42;;;;;;;;;;5078186;27;20063;-65
2023/04/16 01:43:04;;;;;;;74.07;21.60;;;;;;;;;;5107633;28;20032;-65
2023/04/16 01:45:31;;;;;;;68.82;22.40;;;;;;;;;;5110831;28;20475;-65
2023/04/16 01:47:57;;;;;;;73.95;23.00;;;;;;;;;;5100152;28;20044;-65
2023/04/16 01:50:23;;;;;;;63.13;20.30;;;;;;;;;;5096922;28;20042;-65
2023/04/16 01:52:49;;;;;;;66.47;20.65;;;;;;;;;;5113646;28;20043;-65
2023/04/16 01:55:15;;;;;;;65.45;22.42;;;;;;;;;;5112679;28;20043;-65
2023/04/16 01:57:41;;;;;;;58.05;19.73;;;;;;;;;;5110168;28;20173;-65
2023/04/16 02:00:08;;;;;;;59.15;20.30;;;;;;;;;;5075638;28;20083;-65
2023/04/16 02:02:34;;;;;;;54.58;20.65;;;;;;;;;;5091423;28;20046;-65
2023/04/16 02:05:01;;;;;;;61.38;20.88;;;;;;;;;;5112929;28;20559;-65
2023/04/16 02:07:27;;;;;;;65.63;22.30;;;;;;;;;;5092930;28;20495;-65
2023/04/16 02:09:53;;;;;;;64.45;22.70;;;;;;;;;;5094188;28;20044;-65
2023/04/16 02:12:19;;;;;;;69.88;22.45;;;;;;;;;;5093387;28;20056;-65
2023/04/16 02:14:45;;;;;;;59.85;21.95;;;;;;;;;;5113810;28;20127;-65
2023/04/16 02:17:11;;;;;;;65.80;22.15;;;;;;;;;;5094546;28;20048;-65
2023/04/16 02:19:37;;;;;;;72.25;24.00;;;;;;;;;;5095088;28;20043;-65
2023/04/16 02:22:04;;;;;;;61.53;21.98;;;;;;;;;;5078876;28;20047;-65
2023/04/16 02:24:30;;;;;;;67.25;22.40;;;;;;;;;;5110889;28;20544;-65
2023/04/16 02:26:57;;;;;;;69.95;24.50;;;;;;;;;;5077447;28;20074;-64
2023/04/16 02:29:23;;;;;;;68.25;23.85;;;;;;;;;;5095408;28;20051;-65
2023/04/16 02:31:49;;;;;;;55.92;22.13;;;;;;;;;;5094965;28;20047;-64
2023/04/16 02:34:15;;;;;;;44.92;19.15;;;;;;;;;;5078222;28;20494;-65
2023/04/16 02:36:41;;;;;;;57.70;20.80;;;;;;;;;;5111061;28;20039;-64
2023/04/16 02:39:07;;;;;;;55.83;20.02;;;;;;;;;;5097154;28;20056;-64
2023/04/16 02:41:33;;;;;;;56.95;22.02;;;;;;;;;;5065655;28;20437;-65
2023/04/16 02:43:59;;;;;;;52.17;20.77;;;;;;;;;;5111807;28;20566;-65
2023/04/16 02:46:25;;;;;;;55.78;19.98;;;;;;;;;;5112166;28;20039;-64
2023/04/16 02:48:52;;;;;;;59.05;20.92;;;;;;;;;;5111682;28;20051;-64
2023/04/16 02:51:18;;;;;;;66.25;23.60;;;;;;;;;;5108783;27;20468;-65
2023/04/16 02:53:44;;;;;;;61.75;23.20;;;;;;;;;;5112813;28;20124;-65
2023/04/16 02:56:13;;;;;;;60.38;22.30;;;;;;;;;;5111694;28;20731;-64
2023/04/16 02:58:39;;;;;;;62.60;23.25;;;;;;;;;;5094779;28;20055;-64
2023/04/16 03:01:05;;;;;;;67.15;24.48;;;;;;;;;;5094246;28;20087;-65
2023/04/16 03:03:31;;;;;;;67.82;24.15;;;;;;;;;;5112394;28;20109;-65
2023/04/16 03:05:57;;;;;;;67.15;23.70;;;;;;;;;;5108012;27;20158;-65
2023/04/16 03:08:23;;;;;;;56.60;21.83;;;;;;;;;;5062080;28;20089;-65
2023/04/16 03:10:49;;;;;;;64.53;23.00;;;;;;;;;;5101470;28;20044;-65
2023/04/16 03:13:15;;;;;;;61.25;21.67;;;;;;;;;;5074949;28;20048;-65
2023/04/16 03:15:41;;;;;;;53.08;20.85;;;;;;;;;;5093651;28;20058;-65
2023/04/16 03:18:07;;;;;;;57.35;21.73;;;;;;;;;;5112527;28;20043;-65
2023/04/16 03:20:33;;;;;;;64.18;23.77;;;;;;;;;;5061561;28;20047;-65
2023/04/16 03:23:00;;;;;;;57.35;21.13;;;;;;;;;;5075219;28;20127;-65
2023/04/16 03:25:26;;;;;;;61.25;22.52;;;;;;;;;;5084802;28;20063;-65
2023/04/16 03:27:52;;;;;;;62.67;23.38;;;;;;;;;;5111348;28;20500;-65
2023/04/16 03:30:18;;;;;;;58.67;23.20;;;;;;;;;;5110363;28;20092;-67
2023/04/16 03:32:44;;;;;;;60.15;22.85;;;;;;;;;;5112530;28;20099;-65
2023/04/16 03:35:10;;;;;;;61.53;25.20;;;;;;;;;;5089204;28;20119;-65
2023/04/16 03:37:36;;;;;;;64.47;23.65;;;;;;;;;;5110965;28;20035;-65
2023/04/16 03:40:04;;;;;;;68.28;23.83;;;;;;;;;;5093571;28;20051;-65
2023/04/16 03:42:30;;;;;;;79.20;26.20;;;;;;;;;;5076398;28;20043;-65
2023/04/16 03:44:56;;;;;;;72.43;25.05;;;;;;;;;;5093574;28;20132;-64
2023/04/16 03:47:23;;;;;;;72.43;25.95;;;;;;;;;;5076943;28;20075;-65
2023/04/16 03:49:49;;;;;;;69.53;24.58;;;;;;;;;;5100839;28;20052;-65
2023/04/16 03:52:15;;;;;;;79.80;26.15;;;;;;;;;;5111410;28;20114;-65
2023/04/16 03:54:41;;;;;;;77.28;26.67;;;;;;;;;;5092815;28;20111;-65
2023/04/16 03:57:07;;;;;;;83.22;29.63;;;;;;;;;;5095911;28;20097;-65
2023/04/16 03:59:33;;;;;;;70.47;25.67;;;;;;;;;;5095582;28;20048;-65
2023/04/16 04:02:00;;;;;;;76.32;26.63;;;;;;;;;;5102217;28;20044;-65
2023/04/16 04:04:26;;;;;;;76.35;27.02;;;;;;;;;;5096486;28;20171;-65
2023/04/16 04:06:52;;;;;;;87.45;27.33;;;;;;;;;;5115098;28;20060;-66
2023/04/16 04:09:18;;;;;;;82.68;27.35;;;;;;;;;;5115542;28;20180;-66
2023/04/16 04:11:44;;;;;;;80.45;26.05;;;;;;;;;;5115156;28;20183;-65
2023/04/16 04:14:10;;;;;;;81.20;26.83;;;;;;;;;;5116032;28;20122;-65
2023/04/16 04:16:36;;;;;;;74.88;26.75;;;;;;;;;;5115353;27;20043;-65
2023/04/16 04:19:02;;;;;;;69.68;23.45;;;;;;;;;;5114588;28;20043;-65
2023/04/16 04:21:28;;;;;;;87.13;28.55;;;;;;;;;;5106403;28;20076;-65
2023/04/16 04:23:54;;;;;;;80.97;27.85;;;;;;;;;;5115197;28;20055;-65
2023/04/16 04:26:20;;;;;;;83.88;26.00;;;;;;;;;;5115648;28;20055;-65
2023/04/16 04:28:46;;;;;;;83.18;27.90;;;;;;;;;;5114407;27;20107;-65
2023/04/16 04:31:13;;;;;;;86.35;29.80;;;;;;;;;;5083884;28;20079;-65
2023/04/16 04:33:39;;;;;;;90.38;27.88;;;;;;;;;;5096207;28;20062;-65
2023/04/16 04:36:05;;;;;;;85.25;29.52;;;;;;;;;;5103476;28;20183;-65
2023/04/16 04:38:31;;;;;;;86.65;27.67;;;;;;;;;;5076553;28;20056;-65
2023/04/16 04:40:57;;;;;;;70.72;27.17;;;;;;;;;;5105030;28;20043;-65
2023/04/16 04:43:23;;;;;;;73.10;25.58;;;;;;;;;;5095638;28;20388;-65
2023/04/16 04:45:50;;;;;;;76.63;25.58;;;;;;;;;;5115420;28;20185;-65
2023/04/16 04:48:16;;;;;;;85.07;28.42;;;;;;;;;;5114529;28;20067;-65
2023/04/16 04:50:42;;;;;;;79.97;26.73;;;;;;;;;;5114942;28;20039;-65
2023/04/16 04:53:09;;;;;;;74.00;27.27;;;;;;;;;;5096067;28;20139;-65
2023/04/16 04:55:38;;;;;;;96.43;28.08;;;;;;;;;;5080028;28;20052;-65
2023/04/16 04:58:05;;;;;;;82.25;26.45;;;;;;;;;;5112231;28;20040;-65
2023/04/16 05:00:32;;;;;;;81.75;27.75;;;;;;;;;;5095734;28;20086;-65
2023/04/16 05:02:58;;;;;;;89.03;27.98;;;;;;;;;;5060228;28;20398;-66
2023/04/16 05:05:24;;;;;;;82.22;26.77;;;;;;;;;;5096826;28;20120;-66
2023/04/16 05:07:50;;;;;;;80.00;27.17;;;;;;;;;;5096268;28;20488;-65
2023/04/16 05:10:16;;;;;;;89.28;27.40;;;;;;;;;;5096443;28;20056;-65
2023/04/16 05:12:42;;;;;;;79.45;26.70;;;;;;;;;;5112438;28;20508;-65
2023/04/16 05:15:08;;;;;;;87.80;27.38;;;;;;;;;;5096814;28;20066;-65
2023/04/16 05:17:34;;;;;;;81.05;26.80;;;;;;;;;;5093369;28;20131;-65
2023/04/16 05:20:00;;;;;;;84.60;29.55;;;;;;;;;;5094088;28;20040;-65
2023/04/16 05:22:26;;;;;;;77.60;23.83;;;;;;;;;;5078279;28;20503;-65
2023/04/16 05:24:52;;;;;;;86.70;28.38;;;;;;;;;;5095443;28;20415;-65
2023/04/16 05:27:18;;;;;;;67.00;24.65;;;;;;;;;;5113960;28;20063;-64
2023/04/16 05:29:44;;;;;;;80.80;28.40;;;;;;;;;;5079426;28;20047;-65
2023/04/16 05:32:11;;;;;;;75.40;25.80;;;;;;;;;;5110239;28;20043;-65
2023/04/16 05:34:37;;;;;;;86.78;26.08;;;;;;;;;;5083094;28;20051;-65
2023/04/16 05:37:03;;;;;;;84.50;27.77;;;;;;;;;;5109341;28;20040;-64
2023/04/16 05:39:29;;;;;;;83.45;26.75;;;;;;;;;;5114195;28;20055;-67
2023/04/16 05:41:55;;;;;;;66.82;24.20;;;;;;;;;;5103270;28;20051;-65
2023/04/16 05:44:21;;;;;;;83.25;27.50;;;;;;;;;;5111012;28;20119;-65
2023/04/16 05:46:47;;;;;;;83.43;25.17;;;;;;;;;;5080683;28;20047;-65
2023/04/16 05:49:14;;;;;;;74.63;23.45;;;;;;;;;;5112983;28;20047;-65
2023/04/16 05:51:40;;;;;;;76.75;23.42;;;;;;;;;;5077709;28;20052;-65
2023/04/16 05:54:06;;;;;;;82.03;21.67;;;;;;;;;;5112330;28;20051;-65
2023/04/16 05:56:32;;;;;;;67.85;23.95;;;;;;;;;;5095737;28;20526;-65
2023/04/16 05:58:58;;;;;;;68.82;23.92;;;;;;;;;;5094049;28;20048;-64
2023/04/16 06:01:24;;;;;;;67.93;21.27;;;;;;;;;;5113294;28;20053;-65
2023/04/16 06:03:50;;;;;;;73.03;22.30;;;;;;;;;;5074397;28;20051;-65
2023/04/16 06:06:16;;;;;;;63.42;21.23;;;;;;;;;;5113316;28;20039;-65
2023/04/16 06:08:43;;;;;;;71.05;24.38;;;;;;;;;;5095527;28;20039;-65
2023/04/16 06:11:09;;;;;;;60.70;22.33;;;;;;;;;;5094758;28;20105;-65
2023/04/16 06:13:35;;;;;;;69.35;22.08;;;;;;;;;;5107525;28;20128;-65
2023/04/16 06:16:01;;;;;;;68.50;24.17;;;;;;;;;;5102646;28;20119;-65
2023/04/16 06:18:27;;;;;;;70.00;24.05;;;;;;;;;;5106081;28;20059;-65
2023/04/16 06:20:53;;;;;;;63.03;23.60;;;;;;;;;;5112907;28;20040;-65
2023/04/16 06:23:19;;;;;;;72.70;25.10;;;;;;;;;;5112720;28;20466;-65
2023/04/16 06:25:45;;;;;;;66.45;23.77;;;;;;;;;;5095051;28;20059;-65
2023/04/16 06:28:11;;;;;;;53.53;19.27;;;;;;;;;;5107979;28;20044;-65
2023/04/16 06:30:37;;;;;;;62.60;21.75;;;;;;;;;;5105613;28;20032;-65
2023/04/16 06:33:03;;;;;;;57.22;20.95;;;;;;;;;;5113428;28;20087;-67
2023/04/16 06:35:29;;;;;;;62.38;20.27;;;;;;;;;;5076647;28;20044;-65
2023/04/16 06:37:55;;;;;;;69.50;22.48;;;;;;;;;;5100313;28;20131;-64
2023/04/16 06:40:22;;;;;;;64.25;21.30;;;;;;;;;;5109453;28;20512;-65
2023/04/16 06:42:48;;;;;;;65.20;22.75;;;;;;;;;;5102462;28;20076;-65
2023/04/16 06:45:14;;;;;;;66.53;21.02;;;;;;;;;;5093556;28;20130;-64
2023/04/16 06:47:40;;;;;;;63.83;22.17;;;;;;;;;;5094550;28;20071;-65
2023/04/16 06:50:06;;;;;;;73.43;21.60;;;;;;;;;;5112173;28;20072;-65
2023/04/16 06:52:32;;;;;;;53.13;19.15;;;;;;;;;;5074416;28;20048;-65
2023/04/16 06:54:59;;;;;;;49.45;19.50;;;;;;;;;;5083542;28;20059;-66
2023/04/16 06:57:25;;;;;;;68.90;21.92;;;;;;;;;;5076257;28;20048;-65
2023/04/16 06:59:51;;;;;;;52.75;22.17;;;;;;;;;;5110887;28;20503;-65
2023/04/16 07:02:17;;;;;;;59.80;20.67;;;;;;;;;;5092162;28;20051;-65
2023/04/16 07:04:43;;;;;;;59.67;21.35;;;;;;;;;;5090321;28;20054;-65
2023/04/16 07:07:09;;;;;;;58.13;18.60;;;;;;;;;;5077913;28;20051;-65
2023/04/16 07:09:35;;;;;;;48.90;17.38;;;;;;;;;;5057283;28;20051;-65
2023/04/16 07:12:01;;;;;;;49.33;18.40;;;;;;;;;;5104084;28;20043;-65
2023/04/16 07:14:27;;;;;;;59.38;18.65;;;;;;;;;;5096957;28;20035;-65
2023/04/16 07:16:53;;;;;;;61.38;20.27;;;;;;;;;;5101876;28;20071;-65
2023/04/16 07:19:19;;;;;;;63.92;18.20;;;;;;;;;;5107337;28;20048;-65
2023/04/16 07:21:46;;;;;;;55.50;19.40;;;;;;;;;;5093272;28;20051;-65
2023/04/16 07:24:12;;;;;;;58.20;18.40;;;;;;;;;;5111828;28;20381;-65
2023/04/16 07:26:38;;;;;;;64.68;18.65;;;;;;;;;;5092728;28;20065;-65
2023/04/16 07:29:04;;;;;;;76.65;20.77;;;;;;;;;;5082544;28;20583;-65
2023/04/16 07:31:31;;;;;;;68.30;21.50;;;;;;;;;;5092124;28;20380;-65
2023/04/16 07:33:57;;;;;;;58.28;20.60;;;;;;;;;;5111375;28;20058;-65
2023/04/16 07:36:24;;;;;;;58.00;20.40;;;;;;;;;;5070764;28;20036;-65
2023/04/16 07:38:50;;;;;;;58.67;20.08;;;;;;;;;;5090435;28;20044;-65
2023/04/16 07:41:16;;;;;;;61.38;21.10;;;;;;;;;;5103244;28;20047;-65
2023/04/16 07:43:42;;;;;;;59.55;20.35;;;;;;;;;;5074021;28;20131;-66
2023/04/16 07:46:08;;;;;;;59.40;19.85;;;;;;;;;;5098715;28;20123;-66
2023/04/16 07:48:34;;;;;;;74.82;21.83;;;;;;;;;;5105484;28;20048;-66
2023/04/16 07:51:00;;;;;;;68.07;30.00;;;;;;;;;;5102602;28;20066;-65
2023/04/16 07:53:26;;;;;;;60.15;21.23;;;;;;;;;;5079372;28;20063;-66
2023/04/16 07:55:52;;;;;;;53.20;18.85;;;;;;;;;;5073368;28;20054;-66
2023/04/16 07:58:18;;;;;;;80.35;34.65;;;;;;;;;;5109078;28;20114;-65
2023/04/16 08:00:45;;;;;;;78.28;27.58;;;;;;;;;;5102884;28;20131;-66
2023/04/16 08:03:11;;;;;;;63.00;19.88;;;;;;;;;;5075457;28;20044;-65
2023/04/16 08:05:37;;;;;;;64.78;21.95;;;;;;;;;;5093849;28;20071;-65
2023/04/16 08:08:03;;;;;;;70.13;23.70;;;;;;;;;;5110858;28;20064;-65
2023/04/16 08:10:29;;;;;;;60.10;19.85;;;;;;;;;;5102783;28;20048;-66
2023/04/16 08:12:55;;;;;;;54.47;21.17;;;;;;;;;;5106841;28;20044;-65
2023/04/16 08:15:21;;;;;;;54.25;19.08;;;;;;;;;;5092580;28;20546;-65
2023/04/16 08:17:47;;;;;;;74.55;30.38;;;;;;;;;;5093260;28;20047;-66
2023/04/16 08:20:13;;;;;;;103.07;47.00;;;;;;;;;;5105025;28;20053;-65
2023/04/16 08:22:39;;;;;;;66.63;34.13;;;;;;;;;;5105609;28;20048;-65
2023/04/16 08:25:06;;;;;;;48.88;18.60;;;;;;;;;;5101615;28;20052;-65
2023/04/16 08:27:32;;;;;;;64.47;29.77;;;;;;;;;;5070838;28;20495;-65
2023/04/16 08:29:58;;;;;;;66.82;30.92;;;;;;;;;;5075767;28;20515;-65
2023/04/16 08:32:24;;;;;;;53.17;21.58;;;;;;;;;;5102107;28;20054;-65
2023/04/16 08:34:50;;;;;;;60.97;30.42;;;;;;;;;;5063679;28;20142;-65
2023/04/16 08:37:16;;;;;;;66.25;28.08;;;;;;;;;;5096660;28;20516;-65
2023/04/16 08:39:43;;;;;;;51.22;18.95;;;;;;;;;;5104193;28;20047;-65
2023/04/16 08:42:13;;;;;;;38.63;17.33;;;;;;;;;;5109099;28;20046;-66
2023/04/16 08:44:43;;;;;;;45.92;20.45;;;;;;;;;;5101544;28;20044;-66
2023/04/16 08:47:12;;;;;;;44.17;19.88;;;;;;;;;;5068568;28;20208;-65
2023/04/16 08:49:42;;;;;;;73.15;38.95;;;;;;;;;;5050965;28;20075;-65
2023/04/16 08:52:11;;;;;;;56.47;21.00;;;;;;;;;;5107004;28;20504;-65
2023/04/16 08:55:06;;;;;;;44.35;18.77;;;10.30;99.90;;;;;;5068355;28;20173;-65
2023/04/16 08:57:39;;;;;;;51.33;19.17;;;;;;;;;;5077475;28;20054;-65
2023/04/16 09:00:08;;;;;;;61.33;26.50;;;;;;;;;;5087019;28;20050;-65
2023/04/16 09:02:34;;;;;;;44.92;19.98;;;;;;;;;;5087413;28;20040;-65
2023/04/16 09:05:00;;;;;;;48.17;18.15;;;;;;;;;;5069348;28;20051;-65
2023/04/16 09:07:27;;;;;;;56.50;24.70;;;;;;;;;;5067894;28;20081;-65
2023/04/16 09:09:54;;;;;;;44.53;20.10;;;;;;;;;;5066272;28;20046;-65
2023/04/16 09:12:23;;;;;;;47.08;19.05;;;;;;;;;;5107384;28;20384;-65
2023/04/16 09:14:50;;;;;;;50.33;17.52;;;;;;;;;;5071655;28;20079;-65
2023/04/16 09:17:16;;;;;;;45.20;17.85;;;;;;;;;;5084974;28;20044;-65
2023/04/16 09:19:42;;;;;;;42.92;19.02;;;;;;;;;;5067839;28;20500;-65
2023/04/16 09:22:08;;;;;;;46.72;18.35;;;;;;;;;;5101014;28;20142;-65
2023/04/16 09:24:34;;;;;;;46.97;16.38;;;;;;;;;;5101798;28;20044;-65
2023/04/16 09:27:00;;;;;;;49.40;15.98;;;;;;;;;;5086843;28;20131;-65
2023/04/16 09:29:35;;;;;;;45.70;16.88;;;;;;;;;;5104259;28;20096;-65
2023/04/16 09:32:02;;;;;;;42.45;16.00;;;;;;;;;;5072099;28;20055;-65
2023/04/16 09:34:28;;;;;;;44.78;16.23;;;;;;;;;;5113283;28;20042;-65
2023/04/16 09:36:54;;;;;;;45.97;14.55;;;;;;;;;;5090178;28;20043;-65
2023/04/16 09:39:20;;;;;;;46.97;16.50;;;;;;;;;;5087489;28;20051;-65
2023/04/16 09:41:47;;;;;;;41.35;14.57;;;;;;;;;;5112856;28;20062;-65
2023/04/16 09:44:13;;;;;;;41.58;14.85;;;;;;;;;;5096586;28;20442;-67
2023/04/16 09:46:42;;;;;;;34.88;15.20;;;;;;;;;;5107943;28;20050;-65
2023/04/16 09:49:17;;;;;;;40.83;15.98;;;;;;;;;;5078832;28;20096;-65
2023/04/16 09:51:46;;;;;;;41.20;15.98;;;;;;;;;;5113136;28;20495;-65
2023/04/16 09:54:12;;;;;;;44.03;17.02;;;;;;;;;;5078239;28;20096;-65
2023/04/16 09:56:41;;;;;;;40.38;17.40;;;;;;;;;;5104913;28;20092;-65
2023/04/16 09:59:08;;;;;;;37.95;15.50;;;;;;;;;;5094122;28;20128;-66
2023/04/16 10:01:38;;;;;;;35.67;14.75;;;;;;;;;;5107175;22;20044;31
2023/04/16 10:06:39;;;;;;;36.30;14.13;;;;;;;;;;4990906;22;20041;-66
2023/04/16 10:09:07;;;;;;;37.72;15.23;;;;;;;;;;5008942;28;20393;-66
2023/04/16 10:11:33;;;;;;;45.15;15.88;;;;;;;;;;5014826;28;20077;-65
2023/04/16 10:13:59;;;;;;;39.75;14.48;;;;;;;;;;5034936;28;20048;-65
2023/04/16 10:16:26;;;;;;;43.80;15.80;;;;;;;;;;5051332;28;20497;-65
2023/04/16 10:18:54;;;;;;;43.70;16.33;;;;;;;;;;5018928;28;20102;-65
2023/04/16 10:21:20;;;;;;;41.75;15.45;;;;;;;;;;5034684;28;20120;-65
2023/04/16 10:23:48;;;;;;;45.45;19.33;;;;;;;;;;5034018;28;20358;-65
2023/04/16 10:26:15;;;;;;;43.92;14.93;;;;;;;;;;5011291;28;20509;-66
2023/04/16 10:28:41;;;;;;;43.13;15.35;;;;;;;;;;5039291;28;20477;-65
2023/04/16 10:31:08;;;;;;;44.92;16.25;;;;;;;;;;5029944;28;20043;-65
2023/04/16 10:33:35;;;;;;;42.38;17.67;;;;;;;;;;5030869;28;20068;-66
2023/04/16 10:36:09;;;;;;;38.05;16.00;;;;;;;;;;4996873;28;20046;-66
2023/04/16 10:38:38;;;;;;;34.28;15.52;;;;;;;;;;5023818;28;20045;-66
2023/04/16 10:41:04;;;;;;;37.65;15.15;;;;;;;;;;5020421;28;20045;-66
2023/04/16 10:43:34;;;;;;;50.65;16.48;;;;;;;;;;5005047;28;20044;-66
2023/04/16 10:46:18;;;;;;;48.85;19.05;;;12.00;99.90;;;;;;5019237;28;20047;-66
2023/04/16 10:48:44;;;;;;;42.08;15.18;;;;;;;;;;5046335;28;20053;-66
2023/04/16 10:51:22;;;;;;;40.03;14.60;;;;;;;;;;5009483;28;20660;-66
2023/04/16 10:53:49;;;;;;;42.65;13.68;;;;;;;;;;5000057;28;20052;-66
2023/04/16 10:56:22;;;;;;;39.88;16.13;;;;;;;;;;5019658;28;20050;-65
2023/04/16 10:58:48;;;;;;;39.70;13.93;;;;;;;;;;5014935;28;20068;-66
2023/04/16 11:01:15;;;;;;;34.38;13.95;;;;;;;;;;5044530;28;20564;-66
2023/04/16 11:03:46;;;;;;;37.63;13.20;;;;;;;;;;5050724;28;20049;-66
2023/04/16 11:06:15;;;;;;;34.95;13.52;;;;;;;;;;5019095;28;20081;-66
2023/04/16 11:08:42;;;;;;;37.58;14.00;;;;;;;;;;5047140;28;20040;-65
2023/04/16 11:11:09;;;;;;;34.97;14.10;;;;;;;;;;5050938;28;20045;-66
2023/04/16 11:13:36;;;;;;;41.75;14.10;;;;;;;;;;5051327;28;20041;-65
2023/04/16 11:16:03;;;;;;;29.05;13.07;;;;;;;;;;5050745;28;20049;-65
2023/04/16 11:18:29;;;;;;;33.65;12.98;;;;;;;;;;5046692;28;20478;-66
2023/04/16 11:20:55;;;;;;;33.65;13.93;;;;;;;;;;5045807;28;20443;-65
2023/04/16 11:23:21;;;;;;;78.55;32.45;;;;;;;;;;5044656;28;20193;-65
2023/04/16 11:25:47;;;;;;;56.25;24.73;;;;;;;;;;5046572;28;20060;-65
2023/04/16 11:28:13;;;;;;;35.50;13.95;;;;;;;;;;5046367;28;20076;-65
2023/04/16 11:30:40;;;;;;;35.08;14.45;;;;;;;;;;5050898;28;20056;-66
2023/04/16 11:33:10;;;;;;;32.67;14.30;;;;;;;;;;5050696;28;20056;-64
2023/04/16 11:35:38;;;;;;;39.08;13.50;;;;;;;;;;5034257;28;20045;-65
2023/04/16 11:38:07;;;;;;;31.98;13.70;;;;;;;;;;5033874;28;20555;-64
2023/04/16 11:40:33;;;;;;;41.30;14.32;;;;;;;;;;5051861;28;20041;-65
2023/04/16 11:43:03;;;;;;;101.40;38.22;;;;;;;;;;5051291;28;20495;-65
2023/04/16 11:45:29;;;;;;;36.65;15.80;;;;;;;;;;5034014;28;20466;-65
2023/04/16 11:47:56;;;;;;;44.88;15.25;;;;;;;;;;5035227;28;20439;-65
2023/04/16 11:50:26;;;;;;;40.95;16.13;;;;;;;;;;5014386;28;20469;-65
2023/04/16 11:52:56;;;;;;;64.07;22.85;;;;;;;;;;5030416;28;20490;-65
2023/04/16 11:55:23;;;;;;;37.55;15.90;;;;;;;;;;5014043;28;20384;-65
2023/04/16 11:57:50;;;;;;;36.08;13.90;;;;;;;;;;5045627;28;20056;-65
2023/04/16 12:00:16;;;;;;;60.60;24.58;;;;;;;;;;5050191;28;20041;-65
2023/04/16 12:02:43;;;;;;;36.33;16.65;;;;;;;;;;5049992;28;20037;-65
2023/04/16 12:05:32;;;;;;;62.97;25.10;;;12.70;99.90;;;;;;5034057;28;20063;-65
2023/04/16 12:07:59;;;;;;;67.90;27.02;;;;;;;;;;5033515;28;20056;-65
2023/04/16 12:10:26;;;;;;;44.50;17.58;;;;;;;;;;5050179;28;20095;-65
2023/04/16 12:12:52;;;;;;;105.43;44.15;;;;;;;;;;5052528;28;20052;-65
2023/04/16 12:15:18;;;;;;;88.45;36.55;;;;;;;;;;5049564;28;20041;-65
2023/04/16 12:17:44;;;;;;;45.55;18.38;;;;;;;;;;5055541;28;20052;-65
2023/04/16 12:20:12;;;;;;;32.10;15.13;;;;;;;;;;5037893;28;20080;-65
2023/04/16 12:22:40;;;;;;;75.63;35.25;;;;;;;;;;5054796;28;20447;-65
2023/04/16 12:25:07;;;;;;;31.85;14.35;;;;;;;;;;5045277;28;20038;-64
2023/04/16 12:27:44;;;;;;;39.05;15.43;;;;;;;;;;5045345;28;20040;-65
2023/04/16 12:30:10;;;;;;;40.22;15.55;;;;;;;;;;5054095;28;20047;-65
2023/04/16 12:32:37;;;;;;;39.22;14.70;;;;;;;;;;5037730;28;20056;-65
2023/04/16 12:35:04;;;;;;;28.83;13.23;;;;;;;;;;5055095;28;20049;-65
2023/04/16 12:37:30;;;;;;;28.63;13.73;;;;;;;;;;5053482;28;20044;-65
2023/04/16 12:39:56;;;;;;;37.63;13.18;;;;;;;;;;5051202;28;20048;-65
2023/04/16 12:42:22;;;;;;;36.67;14.98;;;;;;;;;;5045413;28;20052;-65
2023/04/16 12:44:48;;;;;;;33.45;17.45;;;;;;;;;;5055065;28;20080;-65
2023/04/16 12:47:14;;;;;;;39.42;14.82;;;;;;;;;;5054693;28;20084;-65
2023/04/16 12:49:41;;;;;;;33.83;14.70;;;;;;;;;;5054808;28;20045;-65
2023/04/16 12:52:07;;;;;;;33.28;15.18;;;;;;;;;;5050389;28;20428;-66
2023/04/16 12:54:36;;;;;;;30.23;14.63;;;;;;;;;;5042758;28;20179;-66
2023/04/16 12:57:02;;;;;;;35.38;14.60;;;;;;;;;;5032813;28;20045;-66
2023/04/16 12:59:28;;;;;;;28.42;14.10;;;;;;;;;;5053673;28;20064;-65
2023/04/16 13:01:54;;;;;;;36.88;14.40;;;;;;;;;;5054136;28;20480;-65
2023/04/16 13:04:20;;;;;;;30.67;15.25;;;;;;;;;;5051041;28;20128;-66
2023/04/16 13:06:47;;;;;;;25.73;13.55;;;;;;;;;;5034384;28;20048;-66
2023/04/16 13:09:13;;;;;;;28.50;14.23;;;;;;;;;;5033395;28;20049;-65
2023/04/16 13:11:39;;;;;;;31.90;14.40;;;;;;;;;;5051794;28;20049;-66
2023/04/16 13:14:05;;;;;;;30.25;15.65;;;;;;;;;;5054429;28;20110;-66
2023/04/16 13:16:32;;;;;;;28.05;14.10;;;;;;;;;;5052340;28;20049;-66
2023/04/16 13:18:58;;;;;;;26.90;14.73;;;;;;;;;;5052639;28;20397;-66
2023/04/16 13:21:24;;;;;;;31.48;14.48;;;;;;;;;;5048581;28;20048;-65
2023/04/16 13:23:50;;;;;;;29.60;14.57;;;;;;;;;;5053389;28;20183;-65
2023/04/16 13:26:16;;;;;;;27.17;13.93;;;;;;;;;;5051585;28;20139;-65
2023/04/16 13:28:42;;;;;;;25.10;13.57;;;;;;;;;;5036137;28;20094;-66
2023/04/16 13:31:08;;;;;;;31.15;13.73;;;;;;;;;;5035560;28;20041;-65
2023/04/16 13:33:35;;;;;;;29.85;14.23;;;;;;;;;;5053656;28;20048;-65
2023/04/16 13:36:01;;;;;;;30.80;14.32;;;;;;;;;;5022726;28;20049;-65
2023/04/16 13:38:27;;;;;;;27.20;12.52;;;;;;;;;;5035366;28;20116;-65
2023/04/16 13:40:53;;;;;;;30.17;14.77;;;;;;;;;;5048781;28;20067;-66
2023/04/16 13:43:21;;;;;;;25.48;14.25;;;;;;;;;;5047477;28;20099;-65
2023/04/16 13:45:47;;;;;;;30.50;14.07;;;;;;;;;;5061294;28;20099;-65
2023/04/16 13:48:13;;;;;;;24.85;13.23;;;;;;;;;;5052730;28;20037;-65
2023/04/16 13:50:39;;;;;;;24.50;12.50;;;;;;;;;;5051666;28;20076;-65
2023/04/16 13:53:05;;;;;;;25.67;14.00;;;;;;;;;;5036143;28;20060;-65
2023/04/16 13:55:31;;;;;;;30.65;14.90;;;;;;;;;;5052291;28;20106;-65
2023/04/16 13:57:57;;;;;;;24.73;12.98;;;;;;;;;;5051616;28;20041;-65
2023/04/16 14:00:25;;;;;;;25.85;13.02;;;;;;;;;;5051302;28;20115;-66
2023/04/16 14:02:51;;;;;;;28.77;13.48;;;;;;;;;;5050902;28;20481;-65
2023/04/16 14:05:18;;;;;;;29.17;13.80;;;;;;;;;;5025046;28;20185;-65
2023/04/16 14:07:45;;;;;;;28.42;14.65;;;;;;;;;;5041015;28;20046;-65
2023/04/16 14:10:11;;;;;;;29.80;13.35;;;;;;;;;;5041887;28;20090;-64
2023/04/16 14:12:38;;;;;;;25.58;13.60;;;;;;;;;;5034475;28;20053;-65
2023/04/16 14:15:08;;;;;;;26.05;14.95;;;;;;;;;;5035473;28;20135;-65